createdAt,value
2019-01-31T00:01:20.789Z,38.23
2019-01-31T00:02:56.434Z,39.90
2019-01-31T00:04:55.634Z,74.05
2019-01-31T00:06:09.125Z,41.63
2019-01-31T00:07:52.237Z,39.25
2019-01-31T00:09:38.079Z,40.10
2019-01-31T00:10:55.784Z,42.08
2019-01-31T00:12:27.990Z,36.77
2019-01-31T00:13:56.474Z,40.67
2019-01-31T00:15:18.605Z,57.27
2019-01-31T00:17:00.033Z,80.50
2019-01-31T00:18:17.359Z,46.53
2019-01-31T00:19:50.556Z,41.23
2019-01-31T00:21:10.921Z,51.68
2019-01-31T00:22:51.982Z,41.53
2019-01-31T00:24:10.454Z,41.08
2019-01-31T00:25:37.105Z,40.83
2019-01-31T00:27:30.994Z,40.23
2019-01-31T00:28:48.901Z,42.60
2019-01-31T00:30:14.605Z,46.92
2019-01-31T00:32:05.267Z,40.30
2019-01-31T00:33:53.898Z,122.22
2019-01-31T00:35:29.758Z,40.10
2019-01-31T00:37:08.597Z,50.75
2019-01-31T00:38:57.298Z,43.73
2019-01-31T00:40:40.882Z,38.88
2019-01-31T00:42:14.017Z,78.05
2019-01-31T00:43:46.947Z,41.28
2019-01-31T00:45:46.365Z,39.10
2019-01-31T00:47:06.913Z,45.90
2019-01-31T00:48:46.421Z,43.28
2019-01-31T00:50:09.646Z,38.60
2019-01-31T00:51:23.580Z,40.35
2019-01-31T00:53:03.082Z,43.33
2019-01-31T00:54:39.150Z,40.30
2019-01-31T00:56:22.038Z,41.83
2019-01-31T00:57:39.038Z,39.95
2019-01-31T00:59:15.425Z,39.88
2019-01-31T01:00:30.327Z,41.45
2019-01-31T01:02:19.125Z,49.98
2019-01-31T01:04:07.961Z,44.77
2019-01-31T01:05:57.033Z,40.45
2019-01-31T01:07:32.870Z,40.92
2019-01-31T01:09:14.306Z,49.00
2019-01-31T01:10:55.805Z,40.80
2019-01-31T01:12:29.154Z,42.40
2019-01-31T01:14:21.232Z,52.65
2019-01-31T01:15:48.769Z,41.80
2019-01-31T01:17:04.172Z,41.75
2019-01-31T01:18:48.503Z,40.75
2019-01-31T01:20:24.998Z,45.30
2019-01-31T01:22:01.465Z,44.10
2019-01-31T01:23:17.851Z,44.10
2019-01-31T01:24:43.530Z,48.02
2019-01-31T01:26:32.338Z,40.73
2019-01-31T01:27:50.870Z,48.73
2019-01-31T01:29:24.898Z,45.70
2019-01-31T01:31:28.178Z,41.83
2019-01-31T01:33:13.093Z,46.85
2019-01-31T01:35:09.658Z,43.90
2019-01-31T01:36:22.862Z,41.23
2019-01-31T01:37:44.241Z,41.65
2019-01-31T01:39:19.536Z,41.95
2019-01-31T01:40:58.879Z,43.28
2019-01-31T01:42:28.182Z,58.28
2019-01-31T01:44:22.474Z,41.70
2019-01-31T01:46:05.641Z,47.70
2019-01-31T01:47:15.295Z,40.95
2019-01-31T01:48:38.278Z,44.27
2019-01-31T01:49:49.694Z,42.60
2019-01-31T01:51:43.253Z,45.85
2019-01-31T01:53:01.894Z,43.15
2019-01-31T01:54:42.894Z,45.85
2019-01-31T01:56:28.633Z,44.15
2019-01-31T01:58:08.109Z,44.08
2019-01-31T01:59:23.137Z,42.60
2019-01-31T02:00:55.316Z,43.02
2019-01-31T02:02:24.920Z,42.00
2019-01-31T02:03:44.746Z,45.30
2019-01-31T02:05:33.361Z,38.83
2019-01-31T02:07:36.854Z,53.73
2019-01-31T02:09:37.259Z,47.00
2019-01-31T02:11:25.887Z,54.35
2019-01-31T02:13:05.642Z,41.75
2019-01-31T02:14:51.494Z,38.13
2019-01-31T02:16:42.030Z,55.45
2019-01-31T02:17:57.489Z,42.58
2019-01-31T02:19:52.034Z,55.88
2019-01-31T02:21:36.755Z,37.73
2019-01-31T02:23:24.187Z,40.45
2019-01-31T02:24:54.710Z,82.15
2019-01-31T02:26:36.766Z,60.50
2019-01-31T02:28:14.091Z,36.98
2019-01-31T02:29:40.695Z,47.95
2019-01-31T02:31:00.267Z,44.10
2019-01-31T02:32:44.108Z,44.33
2019-01-31T02:34:06.706Z,45.45
2019-01-31T02:35:22.587Z,49.25
2019-01-31T02:37:05.751Z,47.98
2019-01-31T02:38:43.930Z,39.55
2019-01-31T02:40:20.851Z,35.73
2019-01-31T02:42:10.797Z,42.17
2019-01-31T02:43:54.558Z,45.25
2019-01-31T02:45:06.131Z,48.92
2019-01-31T02:46:57.779Z,41.88
2019-01-31T02:48:47.491Z,45.35
2019-01-31T02:50:20.911Z,43.52
2019-01-31T02:51:53.488Z,43.33
2019-01-31T02:53:23.104Z,38.63
2019-01-31T02:55:06.735Z,40.05
2019-01-31T02:56:38.702Z,40.12
2019-01-31T02:58:04.818Z,35.83
2019-01-31T02:59:37.203Z,39.73
2019-01-31T03:01:09.055Z,34.70
2019-01-31T03:02:25.904Z,40.75
2019-01-31T03:04:11.931Z,36.88
2019-01-31T03:05:39.487Z,40.12
2019-01-31T03:07:05.998Z,42.70
2019-01-31T03:08:31.201Z,49.55
2019-01-31T03:10:04.559Z,39.40
2019-01-31T03:11:42.726Z,32.33
2019-01-31T03:13:03.837Z,32.25
2019-01-31T03:14:52.135Z,38.73
2019-01-31T03:16:40.199Z,35.98
2019-01-31T03:18:25.939Z,32.08
2019-01-31T03:19:56.558Z,31.05
2019-01-31T03:21:27.137Z,38.35
2019-01-31T03:22:59.926Z,37.75
2019-01-31T03:24:19.370Z,40.15
2019-01-31T03:25:46.214Z,45.98
2019-01-31T03:27:30.187Z,36.95
2019-01-31T03:29:03.365Z,36.23
2019-01-31T03:30:48.325Z,32.90
2019-01-31T03:32:27.933Z,34.15
2019-01-31T03:33:56.788Z,36.50
2019-01-31T03:35:57.234Z,32.75
2019-01-31T03:37:42.886Z,34.58
2019-01-31T03:38:53.554Z,30.82
2019-01-31T03:40:34.720Z,31.05
2019-01-31T03:42:04.602Z,33.50
2019-01-31T03:43:24.875Z,36.25
2019-01-31T03:44:49.260Z,33.05
2019-01-31T03:46:19.769Z,29.18
2019-01-31T03:48:10.142Z,29.00
2019-01-31T03:49:43.739Z,28.25
2019-01-31T03:51:05.543Z,27.62
2019-01-31T03:52:40.434Z,28.87
2019-01-31T03:54:28.938Z,28.65
2019-01-31T03:56:01.830Z,29.65
2019-01-31T03:57:21.111Z,28.50
2019-01-31T03:58:58.011Z,31.42
2019-01-31T04:00:27.594Z,32.90
2019-01-31T04:01:57.982Z,33.02
2019-01-31T04:03:33.454Z,29.75
2019-01-31T04:04:45.495Z,29.60
2019-01-31T04:06:01.414Z,35.92
2019-01-31T04:07:05.690Z,31.02
2019-01-31T04:08:10.494Z,32.48
2019-01-31T04:09:14.766Z,32.30
2019-01-31T04:10:19.414Z,35.28
2019-01-31T04:11:23.742Z,34.95
2019-01-31T04:12:28.250Z,33.55
2019-01-31T04:13:32.503Z,33.38
2019-01-31T04:14:36.773Z,35.92
2019-01-31T04:15:41.038Z,35.80
2019-01-31T04:16:45.298Z,33.42
2019-01-31T04:17:49.565Z,34.48
2019-01-31T04:18:53.824Z,36.45
2019-01-31T04:19:58.111Z,36.20
2019-01-31T04:21:02.387Z,38.10
2019-01-31T04:22:06.739Z,33.18
2019-01-31T04:23:11.008Z,35.30
2019-01-31T04:24:15.262Z,34.20
2019-01-31T04:25:19.530Z,33.23
2019-01-31T04:26:23.799Z,36.23
2019-01-31T04:27:28.074Z,33.83
2019-01-31T04:28:32.338Z,37.35
2019-01-31T04:29:36.615Z,36.15
2019-01-31T04:30:40.887Z,35.17
2019-01-31T04:31:45.162Z,35.15
2019-01-31T04:32:49.443Z,36.13
2019-01-31T04:33:53.711Z,40.67
2019-01-31T04:34:57.982Z,35.92
2019-01-31T04:36:02.246Z,36.60
2019-01-31T04:37:06.529Z,36.75
2019-01-31T04:38:10.802Z,36.85
2019-01-31T04:39:15.143Z,36.95
2019-01-31T04:40:30.348Z,34.58
2019-01-31T04:41:25.469Z,40.28
2019-01-31T04:42:29.760Z,37.05
2019-01-31T04:43:34.017Z,37.03
2019-01-31T04:44:38.283Z,37.40
2019-01-31T04:45:42.557Z,38.20
2019-01-31T04:46:46.824Z,41.83
2019-01-31T04:47:51.091Z,38.63
2019-01-31T04:48:55.362Z,36.77
2019-01-31T04:49:59.627Z,39.55
2019-01-31T04:51:03.978Z,39.42
2019-01-31T04:52:08.385Z,38.88
2019-01-31T04:53:12.738Z,40.45
2019-01-31T04:54:17.002Z,41.70
2019-01-31T04:55:21.342Z,41.13
2019-01-31T04:56:25.613Z,37.67
2019-01-31T04:57:29.883Z,40.30
2019-01-31T04:58:34.154Z,37.80
2019-01-31T04:59:38.419Z,41.88
2019-01-31T05:00:42.762Z,39.92
2019-01-31T05:01:47.104Z,42.98
2019-01-31T05:02:51.366Z,43.30
2019-01-31T05:03:55.659Z,38.28
2019-01-31T05:04:59.930Z,42.48
2019-01-31T05:06:04.485Z,40.90
2019-01-31T05:07:08.770Z,43.92
2019-01-31T05:08:13.082Z,41.37
2019-01-31T05:09:17.346Z,40.25
2019-01-31T05:10:21.610Z,43.85
2019-01-31T05:11:25.876Z,41.53
2019-01-31T05:12:30.138Z,39.73
2019-01-31T05:13:34.479Z,42.10
2019-01-31T05:14:38.759Z,39.88
2019-01-31T05:15:43.032Z,41.48
2019-01-31T05:16:47.298Z,42.15
2019-01-31T05:17:51.645Z,43.25
2019-01-31T05:18:55.928Z,44.15
2019-01-31T05:20:00.262Z,45.63
2019-01-31T05:21:04.610Z,41.05
2019-01-31T05:22:08.878Z,41.20
2019-01-31T05:23:13.146Z,41.60
2019-01-31T05:24:17.418Z,46.08
2019-01-31T05:25:21.690Z,42.43
2019-01-31T05:26:25.958Z,42.55
2019-01-31T05:27:30.232Z,44.00
2019-01-31T05:28:34.530Z,43.95
2019-01-31T05:29:38.798Z,41.85
2019-01-31T05:30:43.065Z,42.50
2019-01-31T05:31:47.336Z,43.58
2019-01-31T05:32:51.603Z,45.78
2019-01-31T05:33:55.886Z,42.58
2019-01-31T05:35:00.346Z,45.28
2019-01-31T05:36:04.986Z,44.10
2019-01-31T05:37:09.254Z,42.10
2019-01-31T05:38:13.526Z,43.58
2019-01-31T05:39:18.124Z,44.50
2019-01-31T05:40:22.378Z,47.70
2019-01-31T05:41:26.643Z,44.85
2019-01-31T05:42:30.910Z,45.35
2019-01-31T05:43:35.222Z,44.15
2019-01-31T05:44:39.510Z,43.45
2019-01-31T05:45:43.774Z,46.68
2019-01-31T05:46:48.039Z,44.00
2019-01-31T05:47:52.303Z,44.55
2019-01-31T05:48:56.568Z,46.73
2019-01-31T05:50:00.834Z,43.75
2019-01-31T05:51:05.251Z,47.48
2019-01-31T05:52:09.515Z,46.90
2019-01-31T05:53:13.782Z,42.27
2019-01-31T05:54:18.058Z,44.88
2019-01-31T05:55:22.322Z,45.30
2019-01-31T05:56:26.582Z,44.50
2019-01-31T05:57:30.855Z,43.90
2019-01-31T05:58:35.112Z,41.75
2019-01-31T05:59:39.454Z,46.42
2019-01-31T06:00:43.744Z,44.95
2019-01-31T06:01:48.011Z,45.00
2019-01-31T06:02:52.269Z,46.15
2019-01-31T06:03:56.532Z,46.83
2019-01-31T06:05:00.823Z,49.18
2019-01-31T06:06:05.351Z,44.38
2019-01-31T06:07:11.532Z,43.70
2019-01-31T06:08:15.850Z,45.92
2019-01-31T06:09:20.115Z,48.15
2019-01-31T06:10:24.467Z,43.87
2019-01-31T06:11:28.734Z,43.28
2019-01-31T06:12:33.170Z,48.10
2019-01-31T06:13:37.458Z,49.50
2019-01-31T06:14:41.744Z,46.40
2019-01-31T06:15:46.155Z,46.50
2019-01-31T06:16:50.426Z,47.67
2019-01-31T06:17:54.771Z,43.42
2019-01-31T06:18:59.102Z,47.27
2019-01-31T06:20:03.723Z,45.45
2019-01-31T06:21:08.075Z,46.45
2019-01-31T06:22:12.355Z,45.45
2019-01-31T06:23:16.619Z,51.15
2019-01-31T06:24:20.887Z,48.10
2019-01-31T06:25:25.155Z,50.17
2019-01-31T06:26:29.590Z,45.52
2019-01-31T06:27:33.940Z,47.53
2019-01-31T06:28:38.206Z,47.98
2019-01-31T06:29:42.494Z,48.75
2019-01-31T06:30:46.779Z,49.50
2019-01-31T06:31:51.048Z,50.15
2019-01-31T06:32:55.315Z,48.87
2019-01-31T06:33:59.595Z,49.67
2019-01-31T06:35:04.224Z,49.75
2019-01-31T06:36:08.578Z,51.35
2019-01-31T06:37:12.864Z,48.80
2019-01-31T06:38:17.132Z,50.38
2019-01-31T06:39:21.425Z,48.23
2019-01-31T06:40:25.663Z,48.33
2019-01-31T06:41:30.014Z,48.90
2019-01-31T06:42:34.302Z,45.80
2019-01-31T06:43:38.593Z,48.92
2019-01-31T06:44:42.855Z,51.30
2019-01-31T06:45:47.130Z,49.30
2019-01-31T06:46:51.426Z,48.73
2019-01-31T06:47:55.706Z,50.65
2019-01-31T06:49:00.061Z,51.28
2019-01-31T06:50:05.158Z,47.58
2019-01-31T06:51:09.522Z,52.35
2019-01-31T06:52:13.803Z,48.85
2019-01-31T06:53:18.082Z,48.92
2019-01-31T06:54:22.358Z,48.02
2019-01-31T06:55:26.686Z,50.70
2019-01-31T06:56:30.959Z,48.17
2019-01-31T06:57:35.302Z,48.63
2019-01-31T06:58:41.154Z,46.58
2019-01-31T06:59:45.619Z,49.23
2019-01-31T07:00:49.883Z,48.15
2019-01-31T07:01:54.171Z,48.13
2019-01-31T07:02:58.435Z,51.37
2019-01-31T07:04:02.986Z,49.10
2019-01-31T07:05:07.527Z,51.08
2019-01-31T07:06:11.791Z,50.43
2019-01-31T07:07:16.075Z,51.45
2019-01-31T07:08:20.330Z,47.45
2019-01-31T07:09:25.091Z,51.35
2019-01-31T07:10:29.426Z,47.98
2019-01-31T07:11:34.904Z,51.08
2019-01-31T07:12:39.343Z,52.27
2019-01-31T07:13:43.610Z,50.15
2019-01-31T07:14:47.882Z,48.05
2019-01-31T07:15:52.159Z,49.75
2019-01-31T07:16:56.422Z,51.73
2019-01-31T07:18:00.706Z,47.10
2019-01-31T07:19:05.326Z,49.23
2019-01-31T07:20:11.398Z,50.40
2019-01-31T07:21:15.752Z,50.92
2019-01-31T07:22:20.174Z,49.30
2019-01-31T07:23:24.438Z,49.23
2019-01-31T07:24:28.697Z,48.28
2019-01-31T07:25:32.963Z,48.25
2019-01-31T07:26:37.222Z,49.48
2019-01-31T07:27:41.500Z,50.05
2019-01-31T07:28:45.766Z,45.85
2019-01-31T07:29:50.034Z,47.88
2019-01-31T07:30:54.301Z,47.13
2019-01-31T07:31:58.638Z,52.83
2019-01-31T07:33:02.928Z,48.30
2019-01-31T07:34:08.375Z,51.55
2019-01-31T07:35:13.746Z,48.60
2019-01-31T07:36:18.008Z,48.55
2019-01-31T07:37:22.347Z,46.45
2019-01-31T07:38:26.629Z,50.45
2019-01-31T07:39:30.895Z,42.17
2019-01-31T07:40:35.170Z,47.73
2019-01-31T07:41:41.374Z,45.78
2019-01-31T07:42:45.487Z,46.98
2019-01-31T07:43:49.756Z,46.42
2019-01-31T07:44:54.198Z,49.13
2019-01-31T07:45:58.470Z,46.80
2019-01-31T07:47:02.735Z,45.33
2019-01-31T07:48:07.010Z,42.95
2019-01-31T07:49:11.279Z,43.08
2019-01-31T07:50:15.795Z,44.90
2019-01-31T07:51:20.078Z,44.33
2019-01-31T07:52:24.418Z,43.08
2019-01-31T07:53:28.711Z,43.23
2019-01-31T07:54:32.998Z,45.55
2019-01-31T07:55:37.266Z,44.53
2019-01-31T07:56:41.538Z,44.67
2019-01-31T07:57:45.819Z,45.75
2019-01-31T07:58:50.199Z,46.10
2019-01-31T07:59:54.454Z,44.75
2019-01-31T08:00:58.718Z,45.12
2019-01-31T08:02:03.175Z,41.73
2019-01-31T08:03:07.475Z,42.38
2019-01-31T08:04:11.825Z,44.85
2019-01-31T08:05:18.095Z,42.35
2019-01-31T08:06:22.516Z,43.33
2019-01-31T08:07:28.760Z,43.45
2019-01-31T08:08:32.752Z,42.17
2019-01-31T08:09:37.036Z,43.68
2019-01-31T08:10:42.478Z,43.48
2019-01-31T08:11:52.768Z,43.45
2019-01-31T08:12:52.858Z,44.73
2019-01-31T08:13:57.146Z,41.80
2019-01-31T08:15:01.416Z,44.42
2019-01-31T08:16:05.968Z,44.10
2019-01-31T08:17:10.274Z,42.65
2019-01-31T08:18:14.553Z,44.05
2019-01-31T08:19:18.830Z,43.83
2019-01-31T08:20:23.172Z,44.50
2019-01-31T08:21:27.514Z,42.38
2019-01-31T08:22:31.779Z,40.50
2019-01-31T08:23:36.056Z,44.50
2019-01-31T08:24:40.326Z,41.53
2019-01-31T08:25:44.742Z,41.55
2019-01-31T08:26:49.013Z,39.40
2019-01-31T08:27:53.639Z,39.90
2019-01-31T08:28:57.931Z,38.53
2019-01-31T08:30:02.203Z,40.38
2019-01-31T08:31:06.827Z,40.00
2019-01-31T08:32:11.242Z,43.10
2019-01-31T08:33:15.503Z,42.95
2019-01-31T08:34:19.782Z,38.50
2019-01-31T08:35:24.212Z,44.77
2019-01-31T08:36:28.478Z,40.75
2019-01-31T08:37:32.834Z,38.75
2019-01-31T08:38:37.108Z,39.33
2019-01-31T08:39:41.460Z,40.05
2019-01-31T08:40:45.722Z,39.73
2019-01-31T08:41:49.986Z,39.65
2019-01-31T08:42:54.334Z,37.25
2019-01-31T08:43:58.611Z,38.48
2019-01-31T08:45:02.959Z,38.83
2019-01-31T08:46:07.235Z,40.43
2019-01-31T08:47:11.530Z,39.38
2019-01-31T08:48:15.794Z,40.15
2019-01-31T08:49:20.075Z,39.63
2019-01-31T08:50:27.562Z,38.03
2019-01-31T08:51:31.176Z,37.40
2019-01-31T08:52:35.434Z,35.17
2019-01-31T08:53:39.694Z,34.67
2019-01-31T08:54:43.986Z,32.87
2019-01-31T08:55:48.310Z,35.23
2019-01-31T08:56:52.651Z,33.00
2019-01-31T08:57:56.932Z,33.37
2019-01-31T08:59:01.207Z,33.87
2019-01-31T09:00:07.047Z,34.13
2019-01-31T09:01:11.298Z,32.83
2019-01-31T09:02:15.590Z,33.27
2019-01-31T09:03:19.847Z,33.03
2019-01-31T09:04:24.110Z,35.40
2019-01-31T09:05:28.456Z,34.17
2019-01-31T09:06:32.731Z,34.33
2019-01-31T09:07:37.075Z,32.33
2019-01-31T09:08:41.401Z,33.53
2019-01-31T09:09:45.674Z,33.70
2019-01-31T09:10:49.949Z,35.00
2019-01-31T09:11:54.278Z,35.37
2019-01-31T09:12:59.740Z,33.93
2019-01-31T09:14:04.007Z,36.17
2019-01-31T09:15:08.704Z,33.83
2019-01-31T09:16:12.971Z,35.10
2019-01-31T09:17:17.298Z,35.00
2019-01-31T09:18:21.562Z,35.57
2019-01-31T09:19:25.903Z,32.77
2019-01-31T09:21:29.407Z,35.90
2019-01-31T09:22:46.039Z,33.73
2019-01-31T09:24:41.592Z,37.00
2019-01-31T09:26:21.614Z,31.30
2019-01-31T09:28:25.346Z,35.30
2019-01-31T09:29:42.533Z,33.60
2019-01-31T09:31:15.488Z,33.37
2019-01-31T09:32:53.678Z,34.63
2019-01-31T09:34:33.226Z,35.40
2019-01-31T09:36:13.210Z,30.00
2019-01-31T09:38:11.096Z,31.67
2019-01-31T09:39:55.558Z,31.47
2019-01-31T09:41:24.958Z,30.93
2019-01-31T09:42:46.955Z,31.13
2019-01-31T09:44:21.519Z,32.70
2019-01-31T09:46:04.111Z,28.50
2019-01-31T09:47:21.731Z,31.53
2019-01-31T09:49:00.802Z,30.00
2019-01-31T09:50:46.554Z,30.93
2019-01-31T09:52:01.735Z,30.90
2019-01-31T09:53:41.295Z,30.57
2019-01-31T09:55:38.462Z,35.40
2019-01-31T09:57:13.315Z,29.10
2019-01-31T09:58:28.062Z,32.93
2019-01-31T10:00:26.790Z,33.70
2019-01-31T10:02:01.454Z,34.30
2019-01-31T10:03:41.698Z,31.30
2019-01-31T10:05:14.799Z,32.40
2019-01-31T10:06:48.486Z,33.47
2019-01-31T10:08:27.770Z,35.50
2019-01-31T10:09:58.136Z,32.17
2019-01-31T10:11:40.514Z,31.63
2019-01-31T10:13:14.213Z,31.13
2019-01-31T10:14:55.559Z,34.67
2019-01-31T10:16:33.759Z,34.13
2019-01-31T10:17:58.300Z,33.83
2019-01-31T10:19:48.606Z,33.03
2019-01-31T10:21:39.910Z,33.97
2019-01-31T10:23:17.109Z,32.47
2019-01-31T10:24:59.938Z,33.70
2019-01-31T10:26:51.286Z,31.47
2019-01-31T10:28:14.608Z,34.33
2019-01-31T10:29:52.953Z,31.03
2019-01-31T10:31:10.274Z,32.23
2019-01-31T10:32:32.044Z,34.17
2019-01-31T10:34:08.863Z,35.70
2019-01-31T10:35:39.031Z,34.03
2019-01-31T10:37:15.555Z,33.23
2019-01-31T10:38:33.979Z,33.43
2019-01-31T10:40:22.234Z,32.97
2019-01-31T10:42:00.551Z,32.93
2019-01-31T10:43:21.147Z,34.60
2019-01-31T10:44:51.110Z,29.53
2019-01-31T10:46:05.226Z,32.93
2019-01-31T10:47:44.490Z,32.23
2019-01-31T10:49:06.583Z,32.27
2019-01-31T10:50:43.753Z,34.60
2019-01-31T10:52:29.963Z,32.90
2019-01-31T10:54:13.827Z,31.87
2019-01-31T10:55:46.438Z,29.40
2019-01-31T10:57:28.622Z,31.90
2019-01-31T10:59:07.129Z,31.87
2019-01-31T11:00:50.283Z,29.33
2019-01-31T11:02:34.987Z,32.63
2019-01-31T11:04:03.948Z,31.27
2019-01-31T11:05:28.824Z,28.43
2019-01-31T11:07:17.166Z,28.73
2019-01-31T11:09:12.035Z,26.13
2019-01-31T11:11:01.859Z,27.77
2019-01-31T11:13:03.283Z,24.80
2019-01-31T11:14:37.068Z,26.33
2019-01-31T11:16:24.491Z,21.23
2019-01-31T11:17:43.938Z,21.30
2019-01-31T11:19:20.319Z,20.77
2019-01-31T11:21:19.526Z,21.70
2019-01-31T11:22:58.935Z,18.07
2019-01-31T11:24:27.348Z,17.73
2019-01-31T11:25:53.647Z,19.40
2019-01-31T11:27:23.879Z,19.40
2019-01-31T11:29:27.875Z,23.00
2019-01-31T11:31:13.667Z,22.13
2019-01-31T11:33:00.352Z,19.57
2019-01-31T11:34:33.177Z,20.13
2019-01-31T11:36:14.539Z,20.97
2019-01-31T11:37:54.322Z,19.43
2019-01-31T11:39:31.423Z,19.43
2019-01-31T11:41:12.893Z,19.97
2019-01-31T11:43:11.282Z,20.33
2019-01-31T11:44:38.063Z,21.00
2019-01-31T11:46:17.790Z,19.70
2019-01-31T11:47:41.184Z,22.67
2019-01-31T11:49:22.774Z,22.50
2019-01-31T11:51:05.530Z,19.73
2019-01-31T11:52:39.637Z,23.30
2019-01-31T11:54:37.002Z,18.33
2019-01-31T11:56:49.582Z,22.40
2019-01-31T11:58:25.462Z,16.80
2019-01-31T11:59:29.737Z,17.80
2019-01-31T12:00:34.246Z,16.67
2019-01-31T12:01:38.648Z,16.77
2019-01-31T12:02:42.986Z,18.43
2019-01-31T12:03:49.984Z,17.43
2019-01-31T12:04:54.314Z,18.67
2019-01-31T12:05:58.676Z,17.13
2019-01-31T12:07:02.934Z,17.43
2019-01-31T12:08:07.443Z,20.00
2019-01-31T12:09:16.783Z,18.70
2019-01-31T12:10:21.233Z,18.73
2019-01-31T12:11:25.785Z,18.20
2019-01-31T12:12:30.124Z,16.73
2019-01-31T12:13:34.383Z,16.30
2019-01-31T12:14:38.950Z,15.90
2019-01-31T12:15:43.284Z,16.27
2019-01-31T12:16:47.558Z,18.43
2019-01-31T12:17:51.814Z,15.03
2019-01-31T12:18:56.079Z,14.00
2019-01-31T12:20:00.409Z,17.10
2019-01-31T12:21:04.763Z,16.30
2019-01-31T12:22:09.371Z,15.60
2019-01-31T12:23:13.707Z,17.30
2019-01-31T12:24:18.054Z,17.47
2019-01-31T12:25:22.314Z,19.30
2019-01-31T12:26:26.738Z,22.90
2019-01-31T12:27:31.005Z,19.43
2019-01-31T12:28:35.335Z,18.93
2019-01-31T12:29:39.755Z,16.20
2019-01-31T12:30:44.115Z,15.37
2019-01-31T12:31:48.386Z,17.03
2019-01-31T12:32:52.647Z,18.10
2019-01-31T12:33:56.907Z,15.97
2019-01-31T12:35:01.166Z,84.47
2019-01-31T12:36:05.603Z,81.37
2019-01-31T12:37:09.950Z,23.70
2019-01-31T12:38:14.210Z,15.73
2019-01-31T12:39:18.466Z,15.50
2019-01-31T12:40:22.727Z,15.17
2019-01-31T12:41:27.079Z,17.33
2019-01-31T12:42:31.331Z,12.83
2019-01-31T12:43:35.662Z,12.70
2019-01-31T12:44:39.925Z,15.30
2019-01-31T12:45:44.178Z,13.47
2019-01-31T12:46:48.519Z,17.20
2019-01-31T12:47:52.778Z,25.33
2019-01-31T12:48:57.047Z,32.73
2019-01-31T12:50:01.318Z,22.40
2019-01-31T12:51:05.719Z,21.30
2019-01-31T12:52:10.153Z,38.83
2019-01-31T12:53:14.484Z,57.57
2019-01-31T12:54:18.827Z,41.93
2019-01-31T12:55:23.261Z,18.47
2019-01-31T12:56:27.510Z,19.30
2019-01-31T12:57:31.792Z,14.43
2019-01-31T12:58:36.070Z,36.33
2019-01-31T12:59:40.327Z,24.67
2019-01-31T13:00:44.712Z,14.43
2019-01-31T13:01:49.018Z,13.30
2019-01-31T13:02:53.362Z,14.40
2019-01-31T13:03:57.630Z,21.23
2019-01-31T13:05:01.987Z,23.13
2019-01-31T13:06:06.542Z,14.43
2019-01-31T13:07:11.249Z,16.83
2019-01-31T13:08:15.592Z,19.90
2019-01-31T13:09:19.923Z,16.03
2019-01-31T13:10:24.461Z,19.20
2019-01-31T13:11:28.793Z,15.57
2019-01-31T13:12:33.214Z,19.57
2019-01-31T13:13:45.969Z,23.03
2019-01-31T13:14:43.422Z,16.03
2019-01-31T13:15:47.763Z,24.70
2019-01-31T13:16:52.022Z,14.43
2019-01-31T13:17:56.382Z,51.93
2019-01-31T13:19:00.642Z,35.63
2019-01-31T13:20:10.367Z,31.93
2019-01-31T13:21:14.719Z,16.10
2019-01-31T13:22:19.045Z,16.70
2019-01-31T13:23:23.312Z,13.20
2019-01-31T13:24:27.563Z,12.50
2019-01-31T13:25:32.001Z,15.30
2019-01-31T13:26:36.266Z,17.37
2019-01-31T13:27:40.522Z,14.33
2019-01-31T13:28:44.808Z,12.70
2019-01-31T13:29:49.062Z,13.30
2019-01-31T13:30:53.391Z,14.77
2019-01-31T13:31:57.646Z,13.37
2019-01-31T13:33:02.005Z,11.33
2019-01-31T13:34:06.251Z,12.90
2019-01-31T13:35:11.114Z,12.87
2019-01-31T13:36:15.958Z,12.60
2019-01-31T13:37:20.220Z,13.87
2019-01-31T13:38:24.483Z,11.40
2019-01-31T13:39:28.810Z,13.23
2019-01-31T13:40:33.139Z,14.80
2019-01-31T13:41:38.054Z,11.73
2019-01-31T13:42:42.554Z,14.87
2019-01-31T13:43:57.036Z,13.83
2019-01-31T13:44:52.926Z,12.27
2019-01-31T13:45:57.182Z,11.93
2019-01-31T13:47:01.446Z,11.70
2019-01-31T13:48:08.662Z,11.03
2019-01-31T13:49:13.004Z,14.07
2019-01-31T13:50:17.653Z,10.57
2019-01-31T13:51:21.995Z,12.43
2019-01-31T13:52:26.250Z,12.57
2019-01-31T13:53:30.680Z,10.67
2019-01-31T13:54:35.094Z,14.00
2019-01-31T13:55:40.182Z,12.40
2019-01-31T13:56:45.968Z,12.70
2019-01-31T13:57:50.523Z,13.03
2019-01-31T13:58:54.790Z,9.30
2019-01-31T13:59:59.035Z,13.83
2019-01-31T14:01:03.367Z,13.07
2019-01-31T14:02:09.379Z,13.17
2019-01-31T14:03:13.816Z,13.20
2019-01-31T14:04:18.163Z,14.20
2019-01-31T14:05:22.602Z,15.33
2019-01-31T14:06:26.851Z,12.83
2019-01-31T14:07:31.111Z,11.60
2019-01-31T14:08:35.386Z,12.43
2019-01-31T14:09:39.638Z,15.70
2019-01-31T14:10:43.994Z,12.97
2019-01-31T14:11:48.251Z,13.03
2019-01-31T14:12:52.674Z,9.20
2019-01-31T14:14:07.953Z,13.07
2019-01-31T14:15:02.882Z,12.20
2019-01-31T14:16:07.286Z,16.97
2019-01-31T14:17:11.547Z,14.60
2019-01-31T14:18:15.878Z,11.30
2019-01-31T14:19:20.160Z,11.23
2019-01-31T14:20:26.118Z,12.30
2019-01-31T14:21:30.378Z,15.47
2019-01-31T14:22:42.803Z,14.07
2019-01-31T14:23:40.578Z,12.97
2019-01-31T14:24:44.844Z,14.83
2019-01-31T14:25:49.240Z,13.90
2019-01-31T14:26:53.498Z,12.97
2019-01-31T14:27:57.826Z,15.27
2019-01-31T14:29:02.114Z,12.00
2019-01-31T14:30:11.591Z,146.37
2019-01-31T14:31:15.865Z,14.83
2019-01-31T14:32:20.971Z,43.77
2019-01-31T14:33:26.070Z,28.90
2019-01-31T14:34:30.342Z,15.20
2019-01-31T14:35:34.599Z,17.33
2019-01-31T14:36:39.003Z,18.07
2019-01-31T14:37:43.327Z,14.70
2019-01-31T14:38:47.582Z,16.03
2019-01-31T14:39:51.851Z,15.10
2019-01-31T14:40:56.114Z,12.40
2019-01-31T14:42:00.456Z,13.07
2019-01-31T14:43:04.959Z,11.90
2019-01-31T14:44:19.898Z,9.80
2019-01-31T14:45:15.486Z,11.47
2019-01-31T14:46:19.754Z,13.90
2019-01-31T14:47:24.014Z,12.53
2019-01-31T14:48:28.274Z,10.83
2019-01-31T14:49:32.620Z,13.43
2019-01-31T14:50:37.140Z,12.50
2019-01-31T14:51:41.478Z,9.77
2019-01-31T14:52:45.731Z,12.27
2019-01-31T14:53:49.988Z,11.90
2019-01-31T14:54:54.257Z,11.77
2019-01-31T14:55:58.534Z,13.13
2019-01-31T14:57:02.782Z,12.90
2019-01-31T14:58:09.229Z,12.63
2019-01-31T14:59:13.490Z,13.27
2019-01-31T15:00:20.076Z,12.97
2019-01-31T15:01:24.330Z,12.70
2019-01-31T15:02:28.604Z,13.95
2019-01-31T15:03:32.934Z,11.33
2019-01-31T15:04:37.203Z,12.93
2019-01-31T15:05:41.559Z,14.05
2019-01-31T15:06:45.830Z,15.85
2019-01-31T15:07:50.177Z,13.28
2019-01-31T15:08:54.444Z,11.87
2019-01-31T15:09:58.720Z,12.63
2019-01-31T15:11:03.054Z,11.55
2019-01-31T15:12:07.319Z,12.35
2019-01-31T15:13:11.674Z,14.20
2019-01-31T15:14:15.918Z,14.80
2019-01-31T15:15:20.332Z,12.37
2019-01-31T15:16:24.590Z,11.88
2019-01-31T15:17:28.858Z,13.48
2019-01-31T15:18:33.278Z,13.50
2019-01-31T15:19:37.603Z,15.50
2019-01-31T15:20:45.902Z,14.05
2019-01-31T15:21:50.158Z,13.75
2019-01-31T15:22:54.426Z,14.60
2019-01-31T15:23:59.651Z,16.70
2019-01-31T15:25:04.115Z,14.23
2019-01-31T15:26:07.786Z,17.77
2019-01-31T15:27:12.127Z,12.70
2019-01-31T15:28:16.399Z,10.87
2019-01-31T15:29:20.663Z,13.58
2019-01-31T15:30:30.445Z,11.48
2019-01-31T15:31:34.866Z,12.68
2019-01-31T15:32:39.124Z,13.33
2019-01-31T15:33:43.371Z,16.50
2019-01-31T15:34:47.778Z,12.10
2019-01-31T15:35:52.058Z,12.93
2019-01-31T15:36:56.328Z,14.30
2019-01-31T15:38:00.583Z,11.90
2019-01-31T15:39:07.919Z,17.57
2019-01-31T15:40:15.587Z,16.80
2019-01-31T15:41:19.936Z,21.12
2019-01-31T15:42:24.207Z,15.32
2019-01-31T15:43:28.546Z,12.10
2019-01-31T15:44:42.838Z,15.10
2019-01-31T15:45:38.955Z,12.80
2019-01-31T15:46:43.314Z,13.18
2019-01-31T15:47:47.732Z,13.78
2019-01-31T15:48:52.367Z,14.20
2019-01-31T15:49:56.715Z,14.63
2019-01-31T15:51:00.980Z,13.58
2019-01-31T15:52:06.194Z,16.17
2019-01-31T15:53:10.539Z,12.00
2019-01-31T15:54:14.808Z,15.30
2019-01-31T15:55:19.938Z,17.57
2019-01-31T15:56:24.295Z,17.57
2019-01-31T15:57:28.559Z,15.65
2019-01-31T15:58:32.895Z,20.02
2019-01-31T15:59:37.235Z,12.43
2019-01-31T16:00:45.176Z,14.98
2019-01-31T16:01:49.610Z,16.75
2019-01-31T16:02:53.962Z,17.67
2019-01-31T16:04:00.885Z,18.23